This is the latest recevied weather packets stored in our database for station/object KB0Y. If no packets are shown the sender has not sent any weather packets the latest 10 day(s).
| Time | Temp. | Humidity | Pressure | Rain* | Wind** | Luminosity | Snow |
|---|---|---|---|---|---|---|---|
| 1777430199 | 22.78° C | 75% | 1021 hPa | 0 mm | - | 0 W/m² | - |
| 1777429894 | 22.78° C | 78% | 1021 hPa | 0 mm | - | 0 W/m² | - |
| 1777425337 | 22.78° C | 75% | 1021 hPa | 0 mm | - | 0 W/m² | - |
| 1777421684 | 25° C | 69% | 1020.6 hPa | 0 mm | - | 0 W/m² | - |
| 1777418650 | 27.78° C | 59% | 1021 hPa | 0 mm | - | 38 W/m² | - |
| 1777411969 | 30° C | 48% | 1022.1 hPa | 0 mm | - | 427 W/m² | - |
| 1777410758 | 29.44° C | 52% | 1022.4 hPa | 0 mm | - | 452 W/m² | - |
| 1777408635 | 28.89° C | 55% | 1022.8 hPa | 0 mm | - | 495 W/m² | - |
| 1777408331 | 28.33° C | 55% | 1023.1 hPa | 0 mm | - | 416 W/m² | - |
| 1777407728 | 28.33° C | 55% | 1023.1 hPa | 0 mm | - | 469 W/m² | - |
| 1777407118 | 28.89° C | 54% | 1023.1 hPa | 0 mm | - | 331 W/m² | - |
| 1777404991 | 28.33° C | 57% | 1024.1 hPa | 0 mm | - | 374 W/m² | - |
| 1777404686 | 28.33° C | 57% | 1024.1 hPa | 0 mm | - | 426 W/m² | - |
| 1777404382 | 28.33° C | 56% | 1024.1 hPa | 0 mm | - | 370 W/m² | - |
| 1777404080 | 28.33° C | 55% | 1024.1 hPa | 0 mm | - | 538 W/m² | - |
| 1777403775 | 28.33° C | 55% | 1024.1 hPa | 0 mm | - | 551 W/m² | - |
| 1777402561 | 28.33° C | 54% | 1024.8 hPa | 0 mm | - | 534 W/m² | - |
| 1777401953 | 27.78° C | 51% | 1025.1 hPa | 0 mm | - | 547 W/m² | - |
| 1777399830 | 27.22° C | 59% | 1025.5 hPa | 0 mm | - | 531 W/m² | - |
| 1777399527 | 27.22° C | 60% | 1025.5 hPa | 0 mm | - | 517 W/m² | - |
| 1777399224 | 26.67° C | 59% | 1025.5 hPa | 0 mm | - | 558 W/m² | - |
| 1777398922 | 26.67° C | 57% | 1025.8 hPa | 0 mm | - | 542 W/m² | - |
| 1777396191 | 25.56° C | 68% | 1026.5 hPa | 0 mm | - | 514 W/m² | - |
| 1777395887 | 25.56° C | 68% | 1026.8 hPa | 0 mm | - | 509 W/m² | - |
| 1777394977 | 25° C | 71% | 1026.5 hPa | 0 mm | - | 528 W/m² | - |
* Rain latest hour (hover to see other rain measurements)
** Current wind speed in m/s (hover to see current wind gust speed)